Time;durP1;ratioP1;P1;durP2;ratioP2;P2;SDS_P1;SDS_P2;PMS_P1;PMS_P2;Temp;Humidity;BMP_temperature;BMP_pressure;BME280_temperature;BME280_humidity;BME280_pressure;Samples;Min_cycle;Max_cycle;Signal;HPM_P1;HPM_P2
2023/02/23 00:01:13;;;;;;;2.80;1.93;;;9.60;99.90;;;;;;5075677;28;20524;-80
2023/02/23 00:03:40;;;;;;;8.57;2.30;;;9.60;99.90;;;;;;5075553;28;20473;-80
2023/02/23 00:06:07;;;;;;;7.00;2.73;;;9.50;99.90;;;;;;5075768;28;20448;-80
2023/02/23 00:08:36;;;;;;;3.93;2.07;;;9.50;99.90;;;;;;5075377;28;20462;-80
2023/02/23 00:11:04;;;;;;;1.93;1.40;;;9.40;99.90;;;;;;5075411;28;20458;-80
2023/02/23 00:13:31;;;;;;;5.33;2.57;;;9.40;99.90;;;;;;5075343;28;20445;-80
2023/02/23 00:15:58;;;;;;;5.73;1.67;;;9.40;99.90;;;;;;5075312;28;20445;-80
2023/02/23 00:18:28;;;;;;;7.80;2.40;;;9.30;99.90;;;;;;5075140;28;20483;-80
2023/02/23 00:20:57;;;;;;;2.20;2.00;;;9.30;99.90;;;;;;5075227;28;20438;-80
2023/02/23 00:23:26;;;;;;;2.27;1.80;;;9.20;99.90;;;;;;5075105;28;20480;-80
2023/02/23 00:25:54;;;;;;;9.30;2.00;;;9.20;99.90;;;;;;5075116;28;20532;-80
2023/02/23 00:28:20;;;;;;;7.27;2.83;;;9.10;99.90;;;;;;5074961;28;20499;-80
2023/02/23 00:30:47;;;;;;;4.40;2.00;;;9.10;99.90;;;;;;5075010;28;20442;-80
2023/02/23 00:33:14;;;;;;;3.63;1.60;;;9.10;99.90;;;;;;5074975;28;20450;-80
2023/02/23 00:35:41;;;;;;;2.60;1.40;;;9.10;99.90;;;;;;5074608;28;20450;-80
2023/02/23 00:38:08;;;;;;;2.73;1.53;;;9.10;99.90;;;;;;5074360;28;20489;-81
2023/02/23 00:40:35;;;;;;;3.87;1.67;;;9.10;99.90;;;;;;5074798;28;20442;-80
2023/02/23 00:43:03;;;;;;;1.53;1.43;;;9.10;99.90;;;;;;5074743;28;20445;-80
2023/02/23 00:45:29;;;;;;;4.43;2.10;;;9.10;99.90;;;;;;5074387;28;20449;-80
2023/02/23 00:47:56;;;;;;;1.83;0.80;;;9.10;99.90;;;;;;5074588;28;20472;-80
2023/02/23 00:50:23;;;;;;;3.77;1.73;;;9.00;99.90;;;;;;5074604;28;20468;-80
2023/02/23 00:52:49;;;;;;;1.90;1.50;;;9.00;99.90;;;;;;5074530;28;20825;-80
2023/02/23 00:55:16;;;;;;;1.10;1.00;;;9.00;99.90;;;;;;5074403;28;20441;-80
2023/02/23 00:57:43;;;;;;;1.10;0.80;;;9.00;99.90;;;;;;5073698;28;20996;-80
2023/02/23 01:00:17;;;;;;;1.00;0.90;;;9.00;99.90;;;;;;5074407;28;20460;-80
2023/02/23 01:02:44;;;;;;;3.10;1.00;;;8.90;99.90;;;;;;5074398;28;20455;-80
2023/02/23 01:05:12;;;;;;;1.77;1.67;;;8.90;99.90;;;;;;5074326;28;20457;-80
2023/02/23 01:07:39;;;;;;;0.80;0.80;;;8.90;99.90;;;;;;5074188;28;20552;-80
2023/02/23 01:10:17;;;;;;;2.30;1.00;;;8.90;99.90;;;;;;5073979;28;20429;-80
2023/02/23 01:12:46;;;;;;;3.50;1.43;;;8.90;99.90;;;;;;5074461;28;20437;-80
2023/02/23 01:15:14;;;;;;;2.17;1.00;;;8.90;99.90;;;;;;5074090;28;20450;-80
2023/02/23 01:17:42;;;;;;;0.80;0.80;;;8.90;99.90;;;;;;5073657;28;21070;-80
2023/02/23 01:20:14;;;;;;;1.47;0.70;;;8.90;99.90;;;;;;5074113;28;20442;-80
2023/02/23 01:22:42;;;;;;;2.00;1.27;;;8.90;99.90;;;;;;5074187;28;20437;-81
2023/02/23 01:25:11;;;;;;;4.93;0.70;;;8.90;99.90;;;;;;5073953;28;20453;-80
2023/02/23 01:27:38;;;;;;;2.00;0.80;;;8.80;99.90;;;;;;5073875;28;20475;-80
2023/02/23 01:30:05;;;;;;;1.50;1.37;;;8.90;99.90;;;;;;5073648;28;20434;-80
2023/02/23 01:32:34;;;;;;;3.47;0.90;;;8.90;99.90;;;;;;5073829;28;20446;-80
2023/02/23 01:35:03;;;;;;;2.43;0.70;;;8.80;99.90;;;;;;5073781;28;20442;-80
2023/02/23 01:37:30;;;;;;;1.00;1.00;;;8.80;99.90;;;;;;5073312;28;20548;-80
2023/02/23 01:39:56;;;;;;;0.90;0.80;;;8.80;99.90;;;;;;5073727;28;20837;-80
2023/02/23 01:42:24;;;;;;;3.57;0.80;;;8.80;99.90;;;;;;5073664;28;20451;-80
2023/02/23 01:45:21;;;;;;;0.80;0.80;;;8.90;99.90;;;;;;5073642;28;20540;-80
2023/02/23 01:47:50;;;;;;;1.73;0.90;;;8.90;99.90;;;;;;5073580;28;20556;-80
2023/02/23 01:50:18;;;;;;;2.30;0.70;;;8.90;99.90;;;;;;5073301;28;20810;-80
2023/02/23 01:52:46;;;;;;;3.03;1.07;;;8.80;99.90;;;;;;5073572;28;20465;-80
2023/02/23 01:55:14;;;;;;;16.03;1.57;;;8.80;99.90;;;;;;5073709;28;20449;-80
2023/02/23 01:57:42;;;;;;;2.07;1.10;;;8.80;99.90;;;;;;5073369;28;20512;-80
2023/02/23 02:00:13;;;;;;;5.23;1.10;;;8.90;99.90;;;;;;5073165;28;21022;-80
2023/02/23 02:02:41;;;;;;;2.30;1.13;;;8.90;99.90;;;;;;5073723;28;20434;-80
2023/02/23 02:05:12;;;;;;;1.43;1.07;;;8.80;99.90;;;;;;5073400;28;20453;-80
2023/02/23 02:07:43;;;;;;;2.87;2.77;;;8.80;99.90;;;;;;5072174;28;20465;-80
2023/02/23 02:10:39;;;;;;;1.90;0.70;;;8.80;99.90;;;;;;5073133;28;20528;-80
2023/02/23 02:13:07;;;;;;;1.70;1.23;;;8.80;99.90;;;;;;5073356;28;20491;-80
2023/02/23 02:15:40;;;;;;;2.93;1.10;;;8.80;99.90;;;;;;5073275;28;20449;-80
2023/02/23 02:18:17;;;;;;;0.97;0.87;;;8.80;99.90;;;;;;5073189;28;20486;-80
2023/02/23 02:21:14;;;;;;;6.10;1.33;;;8.90;99.90;;;;;;5073286;28;20789;-80
2023/02/23 02:24:08;;;;;;;1.00;0.63;;;8.90;99.90;;;;;;5073263;28;20430;-80
2023/02/23 02:26:44;;;;;;;4.70;1.47;;;8.90;99.90;;;;;;5073173;28;20444;-80
2023/02/23 02:29:49;;;;;;;2.43;1.53;;;8.90;99.90;;;;;;5072909;28;20806;-80
2023/02/23 02:32:38;;;;;;;1.93;1.10;;;8.90;99.90;;;;;;5072832;28;20972;-80
2023/02/23 02:35:36;;;;;;;2.40;1.23;;;9.00;99.90;;;;;;5073150;28;20450;-80
2023/02/23 02:38:25;;;;;;;2.33;1.40;;;9.00;99.90;;;;;;5072788;28;20493;-80
2023/02/23 02:40:59;;;;;;;2.20;1.90;;;9.00;99.90;;;;;;5072781;28;20434;-80
2023/02/23 02:43:37;;;;;;;3.43;1.20;;;9.00;99.90;;;;;;5073079;28;20543;-80
2023/02/23 02:46:08;;;;;;;2.00;1.23;;;9.00;99.90;;;;;;5072767;28;20917;-80
2023/02/23 02:48:42;;;;;;;4.70;1.97;;;9.00;99.90;;;;;;5072933;28;20477;-81
2023/02/23 02:51:17;;;;;;;2.07;0.70;;;9.00;99.90;;;;;;5073271;28;20436;-80
2023/02/23 02:53:52;;;;;;;2.30;1.00;;;9.10;99.90;;;;;;5072948;28;20433;-80
2023/02/23 02:56:22;;;;;;;2.20;1.30;;;9.10;99.90;;;;;;5072573;28;20426;-80
2023/02/23 02:58:49;;;;;;;1.80;0.90;;;9.10;99.90;;;;;;5072809;28;20480;-80
2023/02/23 04:17:54;;;;;;;0.50;0.50;;;8.60;99.90;;;;;;5075276;28;20529;-80
2023/02/23 04:20:21;;;;;;;2.97;1.40;;;8.60;99.90;;;;;;5075248;28;20456;-80
2023/02/23 04:22:48;;;;;;;2.10;2.00;;;8.60;99.90;;;;;;5074896;28;20957;-80
2023/02/23 04:25:18;;;;;;;2.93;1.40;;;8.60;99.90;;;;;;5075157;28;20456;-80
2023/02/23 04:27:44;;;;;;;1.43;1.30;;;8.60;99.90;;;;;;5074968;28;20466;-80
2023/02/23 04:30:12;;;;;;;3.03;1.00;;;8.60;99.90;;;;;;5074473;28;20442;-80
2023/02/23 04:32:39;;;;;;;1.33;1.00;;;8.60;99.90;;;;;;5074544;28;20452;-80
2023/02/23 04:35:08;;;;;;;2.50;1.00;;;8.50;99.90;;;;;;5074939;28;20453;-80
2023/02/23 04:37:34;;;;;;;0.80;0.80;;;8.60;99.90;;;;;;5074530;28;20492;-80
2023/02/23 04:40:01;;;;;;;4.77;1.00;;;8.50;99.90;;;;;;5074779;28;20492;-80
2023/02/23 04:42:28;;;;;;;1.67;0.77;;;8.50;99.90;;;;;;5074787;28;20450;-80
2023/02/23 04:44:55;;;;;;;1.90;1.30;;;8.50;99.90;;;;;;5074414;28;20457;-80
2023/02/23 04:47:22;;;;;;;11.77;0.83;;;8.50;99.90;;;;;;5074653;28;20481;-80
2023/02/23 04:49:49;;;;;;;1.07;0.83;;;8.40;99.90;;;;;;5074540;28;20452;-80
2023/02/23 04:52:17;;;;;;;0.93;0.83;;;8.40;99.90;;;;;;5074685;28;20450;-80
2023/02/23 04:54:44;;;;;;;1.40;0.83;;;8.40;99.90;;;;;;5074494;28;20453;-80
2023/02/23 04:57:11;;;;;;;2.30;1.13;;;8.40;99.90;;;;;;5074128;28;20477;-80
2023/02/23 04:59:37;;;;;;;1.40;0.90;;;8.40;99.90;;;;;;5074354;28;20477;-80
2023/02/23 05:02:05;;;;;;;4.30;1.47;;;8.40;99.90;;;;;;5074191;28;20961;-80
2023/02/23 05:04:33;;;;;;;2.23;1.23;;;8.40;99.90;;;;;;5074381;28;20453;-80
2023/02/23 05:07:00;;;;;;;1.53;1.43;;;8.40;99.90;;;;;;5074221;28;20473;-80
2023/02/23 05:09:28;;;;;;;3.03;0.70;;;8.50;99.90;;;;;;5074962;28;20449;-80
2023/02/23 05:11:55;;;;;;;1.23;0.90;;;8.40;99.90;;;;;;5074194;28;20454;-80
2023/02/23 05:14:22;;;;;;;2.53;1.30;;;8.50;99.90;;;;;;5074178;28;20502;-80
2023/02/23 05:16:49;;;;;;;3.27;1.20;;;8.50;99.90;;;;;;5073865;28;20470;-79
2023/02/23 05:19:17;;;;;;;0.60;0.60;;;8.50;99.90;;;;;;5074031;28;20848;-80
2023/02/23 05:21:43;;;;;;;2.20;0.80;;;8.50;99.90;;;;;;5073715;28;20941;-80
2023/02/23 05:24:10;;;;;;;0.70;0.70;;;8.40;99.90;;;;;;5073973;28;20449;-80
2023/02/23 05:26:38;;;;;;;0.67;0.60;;;8.50;99.90;;;;;;5073801;28;20460;-80
2023/02/23 05:29:06;;;;;;;2.87;2.00;;;8.50;99.90;;;;;;5074284;28;20437;-80
2023/02/23 05:31:32;;;;;;;1.27;0.70;;;8.50;99.90;;;;;;5073897;28;20442;-80
2023/02/23 05:33:59;;;;;;;0.97;0.50;;;8.50;99.90;;;;;;5073747;28;20454;-80
2023/02/23 05:36:26;;;;;;;2.40;1.27;;;8.50;99.90;;;;;;5073625;28;20933;-80
2023/02/23 05:38:53;;;;;;;0.90;0.50;;;8.40;99.90;;;;;;5073257;28;20996;-80
2023/02/23 05:41:22;;;;;;;2.67;0.80;;;8.40;99.90;;;;;;5073409;28;20957;-80
2023/02/23 05:43:52;;;;;;;0.87;0.87;;;8.40;99.90;;;;;;5073552;28;20493;-80
2023/02/23 05:46:21;;;;;;;1.57;0.80;;;8.40;99.90;;;;;;5073564;28;20506;-80
2023/02/23 05:48:48;;;;;;;3.50;1.50;;;8.40;99.90;;;;;;5073302;28;20449;-79
2023/02/23 05:51:16;;;;;;;1.60;1.37;;;8.40;99.90;;;;;;5073287;28;20983;-80
2023/02/23 05:53:43;;;;;;;2.20;0.93;;;8.40;99.90;;;;;;5073544;28;20480;-80
2023/02/23 05:56:13;;;;;;;1.60;1.27;;;8.40;99.90;;;;;;5073506;28;20449;-80
2023/02/23 05:58:39;;;;;;;1.37;1.20;;;8.30;99.90;;;;;;5073388;28;20497;-80
2023/02/23 06:01:07;;;;;;;2.13;1.30;;;8.30;99.90;;;;;;5073448;28;20453;-80
2023/02/23 06:03:34;;;;;;;2.87;2.17;;;8.30;99.90;;;;;;5073429;28;20458;-80
2023/02/23 06:06:01;;;;;;;3.93;1.00;;;8.30;99.90;;;;;;5073427;28;20457;-80
2023/02/23 06:08:28;;;;;;;1.60;0.60;;;8.30;99.90;;;;;;5073315;28;20476;-80
2023/02/23 06:10:54;;;;;;;1.57;1.00;;;8.30;99.90;;;;;;5073382;28;20472;-80
2023/02/23 06:13:21;;;;;;;8.10;1.40;;;8.30;99.90;;;;;;5073342;28;20454;-80
2023/02/23 06:15:49;;;;;;;1.90;1.27;;;8.30;99.90;;;;;;5073279;28;20453;-80
2023/02/23 06:18:17;;;;;;;2.80;1.20;;;8.30;99.90;;;;;;5073248;28;20473;-79
2023/02/23 06:20:45;;;;;;;0.67;0.67;;;8.30;99.90;;;;;;5073213;28;20513;-80
2023/02/23 06:23:14;;;;;;;2.33;0.87;;;8.30;99.90;;;;;;5073270;28;20441;-80
2023/02/23 06:25:41;;;;;;;1.20;1.10;;;8.30;99.90;;;;;;5073209;28;20449;-80
2023/02/23 06:28:09;;;;;;;1.70;0.73;;;8.30;99.90;;;;;;5073143;28;20472;-80
2023/02/23 06:30:37;;;;;;;1.17;0.83;;;8.30;99.90;;;;;;5073132;28;20449;-80
2023/02/23 06:33:04;;;;;;;6.03;0.87;;;8.30;99.90;;;;;;5073194;28;20461;-80
2023/02/23 06:35:32;;;;;;;1.00;0.87;;;8.30;99.90;;;;;;5073101;28;20449;-79
2023/02/23 06:37:59;;;;;;;0.60;0.53;;;8.30;99.90;;;;;;5072708;28;20845;-80
2023/02/23 06:40:26;;;;;;;1.07;1.07;;;8.30;99.90;;;;;;5072739;28;20481;-80
2023/02/23 06:42:52;;;;;;;1.40;1.20;;;8.40;99.90;;;;;;5073030;28;20456;-80
2023/02/23 06:45:19;;;;;;;1.90;0.73;;;8.30;99.90;;;;;;5072772;28;20437;-80
2023/02/23 06:47:47;;;;;;;1.90;0.90;;;8.30;99.90;;;;;;5072937;28;20481;-80
2023/02/23 06:50:14;;;;;;;1.07;0.60;;;8.20;99.90;;;;;;5073029;28;20925;-80
2023/02/23 06:52:44;;;;;;;4.20;1.30;;;8.30;99.90;;;;;;5072962;28;20529;-79
2023/02/23 06:55:12;;;;;;;1.80;1.67;;;8.30;99.90;;;;;;5075541;28;20454;-79
2023/02/23 06:57:38;;;;;;;0.80;0.80;;;8.30;99.90;;;;;;5076740;28;20571;-79
2023/02/23 07:00:06;;;;;;;4.47;1.70;;;8.30;99.90;;;;;;5076671;28;20493;-80
2023/02/23 07:02:34;;;;;;;1.50;1.40;;;8.30;99.90;;;;;;5076389;28;20968;-80
2023/02/23 07:05:00;;;;;;;1.40;0.90;;;8.30;99.90;;;;;;5076359;28;20459;-80
2023/02/23 07:07:27;;;;;;;1.23;0.70;;;8.30;99.90;;;;;;5076258;28;20472;-79
2023/02/23 07:09:55;;;;;;;2.13;1.33;;;8.30;99.90;;;;;;5076570;28;20454;-80
2023/02/23 07:12:22;;;;;;;1.00;0.60;;;8.30;99.90;;;;;;5076547;28;20445;-79
2023/02/23 07:14:48;;;;;;;0.73;0.60;;;8.40;99.90;;;;;;5076218;28;20444;-79
2023/02/23 07:17:16;;;;;;;1.10;0.97;;;8.40;99.90;;;;;;5076307;28;20501;-80
2023/02/23 07:19:43;;;;;;;5.00;1.70;;;8.50;99.90;;;;;;5076075;28;21055;-79
2023/02/23 07:22:10;;;;;;;0.87;0.60;;;8.60;99.90;;;;;;5076095;28;20904;-79
2023/02/23 07:24:37;;;;;;;1.00;0.77;;;8.60;99.90;;;;;;5076327;28;20453;-80
2023/02/23 07:27:05;;;;;;;1.80;0.70;;;8.60;99.90;;;;;;5076178;28;20476;-80
2023/02/23 07:29:32;;;;;;;2.80;1.10;;;8.70;99.90;;;;;;5076268;28;20433;-79
2023/02/23 07:31:59;;;;;;;1.70;0.60;;;8.70;99.90;;;;;;5076199;28;20449;-79
2023/02/23 07:34:25;;;;;;;1.27;0.80;;;8.80;99.90;;;;;;5076245;28;20448;-79
2023/02/23 07:36:52;;;;;;;2.00;1.00;;;8.90;99.90;;;;;;5075812;28;20835;-79
2023/02/23 07:39:19;;;;;;;0.60;0.60;;;9.00;99.90;;;;;;5076018;28;20465;-80
2023/02/23 07:41:46;;;;;;;1.23;0.90;;;9.00;99.90;;;;;;5075841;28;20945;-79
2023/02/23 07:44:14;;;;;;;1.97;1.53;;;9.00;99.90;;;;;;5075638;28;20445;-79
2023/02/23 07:46:41;;;;;;;4.00;0.90;;;9.20;99.90;;;;;;5075814;28;20477;-79
2023/02/23 07:49:08;;;;;;;1.07;0.50;;;9.30;99.90;;;;;;5075883;28;20453;-80
2023/02/23 07:51:35;;;;;;;1.57;1.03;;;9.40;99.90;;;;;;5075833;28;20457;-79
2023/02/23 07:54:04;;;;;;;2.20;1.93;;;9.50;99.90;;;;;;5075772;28;20460;-80
2023/02/23 07:56:30;;;;;;;2.57;1.50;;;9.60;99.90;;;;;;5075655;28;20477;-80
2023/02/23 07:58:57;;;;;;;2.13;0.90;;;9.70;99.90;;;;;;5075689;28;20449;-79
2023/02/23 08:01:25;;;;;;;3.63;1.40;;;9.80;99.90;;;;;;5075337;28;20898;-80
2023/02/23 08:03:52;;;;;;;1.30;0.90;;;9.80;99.90;;;;;;5075262;28;20967;-80
2023/02/23 08:06:19;;;;;;;1.27;1.17;;;9.80;99.90;;;;;;5074152;28;20442;-79
2023/02/23 08:08:46;;;;;;;3.60;1.10;;;9.80;99.90;;;;;;5075169;28;20791;-79
2023/02/23 08:11:14;;;;;;;1.03;0.60;;;9.80;99.90;;;;;;5075255;28;20437;-80
2023/02/23 08:13:41;;;;;;;0.93;0.70;;;9.90;99.90;;;;;;5075453;28;20441;-80
2023/02/23 08:16:08;;;;;;;1.57;1.23;;;9.90;99.90;;;;;;5075355;28;20812;-80
2023/02/23 08:18:36;;;;;;;2.30;1.27;;;10.00;99.90;;;;;;5075014;28;20454;-80
2023/02/23 08:21:04;;;;;;;1.90;1.57;;;9.90;99.90;;;;;;5075107;28;20485;-80
2023/02/23 08:23:32;;;;;;;1.80;1.00;;;10.00;99.90;;;;;;5075076;28;20445;-80
2023/02/23 08:25:59;;;;;;;2.00;0.70;;;10.00;99.90;;;;;;5075155;28;20452;-80
2023/02/23 08:28:26;;;;;;;1.27;0.57;;;10.00;99.90;;;;;;5074746;28;20853;-80
2023/02/23 08:30:53;;;;;;;1.87;1.77;;;10.10;99.90;;;;;;5075077;28;20445;-80
2023/02/23 08:33:20;;;;;;;0.73;0.70;;;10.10;99.90;;;;;;5075012;28;20446;-79
2023/02/23 08:35:48;;;;;;;7.53;2.40;;;10.10;99.90;;;;;;5074830;28;20817;-80
2023/02/23 08:38:15;;;;;;;1.33;0.80;;;10.20;99.90;;;;;;5074501;28;20484;-80
2023/02/23 08:40:42;;;;;;;1.67;0.73;;;10.30;99.90;;;;;;5074696;28;20485;-80
2023/02/23 08:43:08;;;;;;;1.30;0.77;;;10.30;99.90;;;;;;5074826;28;20548;-80
2023/02/23 08:45:36;;;;;;;2.23;1.00;;;10.40;99.90;;;;;;5074801;28;20817;-80
2023/02/23 08:48:03;;;;;;;6.20;1.63;;;10.50;99.90;;;;;;5074665;28;20472;-80
2023/02/23 08:50:30;;;;;;;0.87;0.60;;;10.60;99.90;;;;;;5074696;28;20848;-79
2023/02/23 08:52:58;;;;;;;2.00;1.67;;;10.70;99.90;;;;;;5074627;28;20468;-80
2023/02/23 08:55:25;;;;;;;3.33;1.67;;;10.80;99.90;;;;;;5074597;28;20454;-80
2023/02/23 08:57:51;;;;;;;2.80;1.07;;;10.80;99.90;;;;;;5074505;28;20493;-80
2023/02/23 09:00:19;;;;;;;2.27;0.90;;;10.80;99.90;;;;;;5074428;28;20508;-80
2023/02/23 09:02:47;;;;;;;1.13;1.03;;;10.90;99.90;;;;;;5074236;28;20816;-80
2023/02/23 09:05:14;;;;;;;0.50;0.50;;;11.00;99.90;;;;;;5074071;28;20925;-80
2023/02/23 09:07:43;;;;;;;5.10;1.13;;;11.10;99.90;;;;;;5074254;28;20477;-80
2023/02/23 09:10:14;;;;;;;3.40;0.93;;;11.30;99.90;;;;;;5074270;28;20503;-80
2023/02/23 09:12:41;;;;;;;6.43;1.10;;;11.40;99.90;;;;;;5074001;28;20905;-80
2023/02/23 09:15:09;;;;;;;0.50;0.50;;;11.50;99.90;;;;;;5074295;28;20433;-80
2023/02/23 09:17:36;;;;;;;1.63;1.00;;;11.60;99.90;;;;;;5073691;28;20473;-80
2023/02/23 09:20:04;;;;;;;1.83;1.10;;;11.70;99.90;;;;;;5075117;28;20484;-80
2023/02/23 09:22:32;;;;;;;1.23;0.47;;;11.80;99.90;;;;;;5076244;28;20442;-80
2023/02/23 09:24:59;;;;;;;1.03;0.70;;;12.00;99.90;;;;;;5076208;28;20442;-80
2023/02/23 09:27:27;;;;;;;1.20;0.70;;;12.10;99.90;;;;;;5075906;28;20468;-80
2023/02/23 09:29:54;;;;;;;1.27;0.90;;;12.20;99.90;;;;;;5075630;28;20445;-80
2023/02/23 09:32:21;;;;;;;3.20;1.50;;;12.30;99.90;;;;;;5075616;28;20459;-80
2023/02/23 09:34:48;;;;;;;1.77;1.23;;;12.40;99.90;;;;;;5075634;28;20453;-80
2023/02/23 09:37:16;;;;;;;1.70;1.50;;;12.50;99.90;;;;;;5075261;28;20488;-81
2023/02/23 09:39:44;;;;;;;3.23;0.90;;;12.70;99.90;;;;;;5075225;28;20819;-80
2023/02/23 09:42:25;;;;;;;2.40;1.10;;;12.90;99.90;;;;;;5075316;28;20450;-81
2023/02/23 09:45:03;;;;;;;1.80;0.80;;;13.20;99.90;;;;;;5077871;28;20425;-80
2023/02/23 09:47:39;;;;;;;1.67;1.00;;;13.60;99.90;;;;;;5076035;28;20469;-80
2023/02/23 09:50:16;;;;;;;1.00;0.90;;;14.30;99.90;;;;;;5073714;28;20524;-80
2023/02/23 09:52:48;;;;;;;4.00;1.00;;;14.80;99.90;;;;;;5073624;28;20508;-80
2023/02/23 09:55:16;;;;;;;0.60;0.60;;;15.10;99.90;;;;;;5073359;28;20442;-80
2023/02/23 09:57:45;;;;;;;1.33;0.60;;;15.40;99.90;;;;;;5073548;28;20473;-80
2023/02/23 10:00:21;;;;;;;1.10;1.10;;;15.50;99.90;;;;;;5073344;28;20583;-83
2023/02/23 10:03:16;;;;;;;2.10;0.60;;;15.50;99.90;;;;;;5073194;28;20809;-81
2023/02/23 10:05:48;;;;;;;1.53;0.80;;;15.40;99.90;;;;;;5066638;28;20445;-84
2023/02/23 10:08:25;;;;;;;1.60;0.80;;;15.20;99.90;;;;;;5073493;28;20460;-81
2023/02/23 10:10:59;;;;;;;2.50;0.73;;;15.10;99.90;;;;;;5073155;28;20423;-79
2023/02/23 10:13:37;;;;;;;1.10;0.50;;;15.00;99.90;;;;;;5073446;28;20420;-80
2023/02/23 10:16:13;;;;;;;0.40;0.40;;;14.90;99.90;;;;;;5073381;28;20428;-79
2023/02/23 10:18:49;;;;;;;0.70;0.50;;;14.80;99.90;;;;;;5073326;28;20461;-80
2023/02/23 10:21:20;;;;;;;14.23;0.90;;;14.70;99.90;;;;;;5073260;28;20834;-79
2023/02/23 10:23:51;;;;;;;2.17;0.70;;;14.60;99.90;;;;;;5073307;28;20434;-80
2023/02/23 10:26:22;;;;;;;1.33;0.90;;;14.60;99.90;;;;;;5073013;28;20544;-80
2023/02/23 10:28:50;;;;;;;0.53;0.50;;;14.60;99.90;;;;;;5073573;28;20438;-79
2023/02/23 10:31:27;;;;;;;0.53;0.40;;;14.70;99.90;;;;;;5077071;28;20452;-79
2023/02/23 10:33:58;;;;;;;0.50;0.43;;;14.70;99.90;;;;;;5077363;28;20460;-80
2023/02/23 10:36:35;;;;;;;2.10;0.50;;;14.80;99.90;;;;;;5077256;28;20434;-82
2023/02/23 10:39:04;;;;;;;0.70;0.43;;;14.90;99.90;;;;;;5076806;28;20500;-80
2023/02/23 10:41:31;;;;;;;2.20;0.70;;;15.00;99.90;;;;;;5077120;28;20481;-80
2023/02/23 10:43:58;;;;;;;0.80;0.47;;;15.00;99.90;;;;;;5076877;28;20444;-80
2023/02/23 10:46:36;;;;;;;4.50;0.63;;;15.00;99.90;;;;;;5077045;28;20787;-80
2023/02/23 10:49:03;;;;;;;0.77;0.60;;;14.90;99.90;;;;;;5077111;28;20429;-80
2023/02/23 10:51:39;;;;;;;2.77;0.90;;;14.90;99.90;;;;;;5076645;28;20792;-80
2023/02/23 10:54:43;;;;;;;0.70;0.60;;;15.00;99.90;;;;;;5077024;28;20421;-80
2023/02/23 10:57:15;;;;;;;1.07;0.60;;;15.10;99.90;;;;;;5076861;28;20461;-80
2023/02/23 10:59:59;;;;;;;3.13;0.93;;;15.30;99.90;;;;;;5077008;28;20502;-80
2023/02/23 11:02:30;;;;;;;0.70;0.53;;;15.30;99.90;;;;;;5076527;28;20795;-80
2023/02/23 11:04:58;;;;;;;1.83;1.03;;;15.40;99.90;;;;;;5077261;28;20764;-80
2023/02/23 11:07:28;;;;;;;1.30;0.73;;;15.60;99.90;;;;;;5076742;28;20469;-80
2023/02/23 11:09:55;;;;;;;0.80;0.70;;;15.50;99.90;;;;;;5076651;28;20453;-81
2023/02/23 11:12:27;;;;;;;4.10;1.10;;;15.50;99.90;;;;;;5076556;28;20815;-80
2023/02/23 11:14:56;;;;;;;1.03;0.60;;;15.60;99.90;;;;;;5076257;28;20902;-80
2023/02/23 11:17:31;;;;;;;1.23;0.70;;;15.60;99.90;;;;;;5076440;28;20465;-80
2023/02/23 11:20:01;;;;;;;1.00;0.73;;;15.60;99.90;;;;;;5076528;28;20433;-80
2023/02/23 11:22:31;;;;;;;0.90;0.60;;;15.70;99.90;;;;;;5077075;28;20433;-80
2023/02/23 11:24:59;;;;;;;1.13;0.60;;;15.70;99.90;;;;;;5076903;28;20795;-80
2023/02/23 11:27:27;;;;;;;1.07;0.60;;;15.70;99.90;;;;;;5076251;28;20470;-80
2023/02/23 11:29:57;;;;;;;1.27;0.63;;;15.70;99.90;;;;;;5076300;28;20429;-80
2023/02/23 11:32:30;;;;;;;0.57;0.57;;;15.70;99.90;;;;;;5076279;28;20429;-80
2023/02/23 11:35:27;;;;;;;3.53;0.90;;;15.70;99.90;;;;;;5075926;28;20464;-80
2023/02/23 11:37:55;;;;;;;3.00;0.70;;;15.70;99.90;;;;;;5074147;28;20489;-80
2023/02/23 11:40:24;;;;;;;2.50;0.73;;;15.60;99.90;;;;;;5075630;28;20454;-79
2023/02/23 11:42:53;;;;;;;0.63;0.40;;;15.50;99.90;;;;;;5076018;28;20449;-80
2023/02/23 11:45:22;;;;;;;1.57;0.60;;;15.60;99.90;;;;;;5075990;28;20479;-80
2023/02/23 11:47:50;;;;;;;0.60;0.50;;;15.60;99.90;;;;;;5075930;28;20464;-80
2023/02/23 11:50:23;;;;;;;0.90;0.60;;;15.60;99.90;;;;;;5075569;28;20972;-80
2023/02/23 11:52:56;;;;;;;6.23;0.77;;;15.70;99.90;;;;;;5075537;28;20438;-80
2023/02/23 11:55:24;;;;;;;2.13;0.53;;;15.70;99.90;;;;;;5075804;28;20437;-80
2023/02/23 11:57:52;;;;;;;1.67;0.60;;;15.60;99.90;;;;;;5075638;28;20505;-80
2023/02/23 12:00:24;;;;;;;1.90;0.70;;;15.60;99.90;;;;;;5075565;28;20489;-80
2023/02/23 12:02:55;;;;;;;1.17;1.07;;;15.60;99.90;;;;;;5075742;28;20794;-79
2023/02/23 12:05:25;;;;;;;1.80;0.70;;;15.60;99.90;;;;;;5075371;28;20426;-80
2023/02/23 12:07:59;;;;;;;0.40;0.40;;;15.70;99.90;;;;;;5075533;28;20484;-80
2023/02/23 12:10:30;;;;;;;0.90;0.50;;;15.70;99.90;;;;;;5075560;28;20426;-80
2023/02/23 12:13:03;;;;;;;1.07;0.67;;;15.60;99.90;;;;;;5076226;28;20793;-80
2023/02/23 12:15:37;;;;;;;0.50;0.50;;;15.60;99.90;;;;;;5075447;28;20429;-80
2023/02/23 12:18:11;;;;;;;1.10;1.00;;;15.60;99.90;;;;;;5075334;28;20836;-80
2023/02/23 12:20:43;;;;;;;4.27;0.70;;;15.50;99.90;;;;;;5075277;28;20437;-80
2023/02/23 12:23:15;;;;;;;3.17;1.30;;;15.50;99.90;;;;;;5075710;28;20809;-80
2023/02/23 12:25:49;;;;;;;1.50;0.70;;;15.50;99.90;;;;;;5075264;28;20442;-80
2023/02/23 12:28:24;;;;;;;1.00;0.70;;;15.30;99.90;;;;;;5075183;28;20476;-80
2023/02/23 12:30:56;;;;;;;4.50;1.00;;;15.30;99.90;;;;;;5074879;28;20429;-80
2023/02/23 12:33:28;;;;;;;2.50;0.90;;;15.20;99.90;;;;;;5074849;28;20430;-80
2023/02/23 12:36:01;;;;;;;1.07;0.63;;;15.10;99.90;;;;;;5074776;28;20433;-80
2023/02/23 12:38:39;;;;;;;1.57;0.80;;;15.00;99.90;;;;;;5074583;28;20488;-80
2023/02/23 12:41:11;;;;;;;1.23;0.70;;;14.90;99.90;;;;;;5074961;28;20912;-80
2023/02/23 12:43:48;;;;;;;2.20;1.07;;;14.80;99.90;;;;;;5074907;28;20434;-80
2023/02/23 12:46:21;;;;;;;6.80;0.90;;;14.70;99.90;;;;;;5074583;28;20437;-80
2023/02/23 12:48:53;;;;;;;0.70;0.63;;;14.60;99.90;;;;;;5074818;28;20508;-80
2023/02/23 12:51:28;;;;;;;6.03;1.20;;;14.50;99.90;;;;;;5074069;28;20897;-80
2023/02/23 12:53:56;;;;;;;1.43;0.70;;;14.50;99.90;;;;;;5074607;28;20440;-80
2023/02/23 12:56:50;;;;;;;2.37;1.00;;;14.50;99.90;;;;;;5074586;28;20452;-81
2023/02/23 12:59:46;;;;;;;1.70;0.90;;;14.50;99.90;;;;;;5071991;28;20449;-80
2023/02/23 13:02:18;;;;;;;2.50;1.10;;;14.40;99.90;;;;;;5074488;28;20486;-81
2023/02/23 13:05:02;;;;;;;0.90;0.90;;;14.50;99.90;;;;;;5074528;28;20433;-81
2023/02/23 13:07:40;;;;;;;1.20;1.10;;;14.50;99.90;;;;;;5074025;28;20469;-80
2023/02/23 13:10:20;;;;;;;2.07;1.20;;;14.50;99.90;;;;;;5074060;28;20939;-80
2023/02/23 13:12:56;;;;;;;0.83;0.83;;;14.60;99.90;;;;;;5074325;28;20422;-80
2023/02/23 13:15:32;;;;;;;2.93;0.93;;;14.50;99.90;;;;;;5074304;28;20426;-80
2023/02/23 13:18:05;;;;;;;1.27;0.90;;;14.40;99.90;;;;;;5073918;28;20887;-80
2023/02/23 13:20:38;;;;;;;1.37;0.80;;;14.30;99.90;;;;;;5074177;28;20426;-80
2023/02/23 13:23:21;;;;;;;1.37;1.10;;;14.30;99.90;;;;;;5073978;28;20421;-80
2023/02/23 13:25:59;;;;;;;1.20;0.70;;;14.20;99.90;;;;;;5074113;28;20770;-80
2023/02/23 13:28:38;;;;;;;0.80;0.63;;;14.10;99.90;;;;;;5073616;28;20844;-80
2023/02/23 13:31:12;;;;;;;2.10;1.77;;;14.10;99.90;;;;;;5073967;28;20430;-80
2023/02/23 13:33:39;;;;;;;1.30;0.60;;;14.00;99.90;;;;;;5073972;28;20429;-80
2023/02/23 13:36:07;;;;;;;3.07;1.17;;;13.80;99.90;;;;;;5073868;28;20464;-80
2023/02/23 13:38:42;;;;;;;1.50;0.87;;;13.70;99.90;;;;;;5073374;28;20484;-80
2023/02/23 13:41:24;;;;;;;0.97;0.70;;;13.60;99.90;;;;;;5073449;28;20994;-80
2023/02/23 13:43:58;;;;;;;1.23;0.77;;;13.50;99.90;;;;;;5073799;28;20426;-80
2023/02/23 13:46:36;;;;;;;1.50;1.40;;;13.40;99.90;;;;;;5073713;28;20802;-80
2023/02/23 13:49:13;;;;;;;2.20;0.70;;;13.30;99.90;;;;;;5073763;28;20434;-80
2023/02/23 13:51:45;;;;;;;3.60;0.90;;;13.20;99.90;;;;;;5073722;28;20429;-80
2023/02/23 13:54:24;;;;;;;0.80;0.80;;;13.10;99.90;;;;;;5073701;28;20441;-80
2023/02/23 13:56:55;;;;;;;0.90;0.70;;;13.00;99.90;;;;;;5073582;28;20564;-80
2023/02/23 13:59:24;;;;;;;1.83;0.93;;;13.00;99.90;;;;;;5073582;28;20436;-80
2023/02/23 14:01:52;;;;;;;1.30;0.60;;;13.00;99.90;;;;;;5073107;28;20535;-80
2023/02/23 14:04:23;;;;;;;3.60;0.83;;;12.90;99.90;;;;;;5073440;28;20445;-81
2023/02/23 14:06:57;;;;;;;1.17;0.70;;;12.90;99.90;;;;;;5073422;28;20465;-80
2023/02/23 14:09:29;;;;;;;7.37;1.43;;;12.90;99.90;;;;;;5073457;28;20848;-80
2023/02/23 14:12:15;;;;;;;1.13;0.90;;;12.80;99.90;;;;;;5073484;28;20767;-80
2023/02/23 14:14:45;;;;;;;0.90;0.50;;;12.80;99.90;;;;;;5073424;28;20474;-80
2023/02/23 14:17:49;;;;;;;0.60;0.50;;;12.70;99.90;;;;;;5073023;28;20469;-79
2023/02/23 14:20:41;;;;;;;1.57;0.50;;;12.50;99.90;;;;;;5073401;28;20495;-79
2023/02/23 14:23:29;;;;;;;1.73;1.20;;;12.40;99.90;;;;;;5070409;28;20481;-80
2023/02/23 14:26:34;;;;;;;2.73;0.80;;;12.30;99.90;;;;;;5073038;28;20426;-80
2023/02/23 14:29:25;;;;;;;9.10;1.10;;;12.30;99.90;;;;;;5073306;28;20441;-80